N2623X KTMB-07FA
Flight info
| Callsign | N2623X |
|---|---|
| Flight time | 0h 20m |
| Altitude | 3500 |
| Route | X51 14FD |
| Aircraft | C172/L-VGD/A |
Departure
| Time | 2026-05-03 21:09 |
|---|---|
| Airport | Miami Executive Airport (KTMB) |
Arrival
| Time | 2026-05-03 21:29 |
|---|---|
| Airport | Ocean Reef Club Airport (07FA) |
| Time | Latitude | Longitude | Altitude | Speed | Heading |
|---|---|---|---|---|---|
| 2026-05-03 20:37 | 25.64548 | -80.42761 | 6 ft | 0 kts | 87° |
| 2026-05-03 20:59 | 25.64548 | -80.42759 | 6 ft | 3 kts | 86° |
| 2026-05-03 21:00 | 25.64525 | -80.42666 | 6 ft | 17 kts | 126° |
| 2026-05-03 21:00 | 25.64481 | -80.42653 | 6 ft | 7 kts | 197° |
| 2026-05-03 21:00 | 25.64461 | -80.42708 | 6 ft | 8 kts | 267° |
| 2026-05-03 21:00 | 25.64457 | -80.42789 | 6 ft | 11 kts | 268° |
| 2026-05-03 21:01 | 25.64455 | -80.42877 | 6 ft | 10 kts | 269° |
| 2026-05-03 21:01 | 25.64450 | -80.42953 | 6 ft | 9 kts | 269° |
| 2026-05-03 21:01 | 25.64460 | -80.43018 | 6 ft | 8 kts | 308° |
| 2026-05-03 21:01 | 25.64493 | -80.43063 | 6 ft | 8 kts | 308° |
| 2026-05-03 21:02 | 25.64541 | -80.43132 | 6 ft | 13 kts | 308° |
| 2026-05-03 21:02 | 25.64594 | -80.43205 | 6 ft | 8 kts | 303° |
| 2026-05-03 21:02 | 25.64631 | -80.43265 | 6 ft | 12 kts | 302° |
| 2026-05-03 21:02 | 25.64625 | -80.43324 | 6 ft | 7 kts | 217° |
| 2026-05-03 21:03 | 25.64578 | -80.43361 | 6 ft | 10 kts | 219° |
| 2026-05-03 21:03 | 25.64519 | -80.43414 | 6 ft | 8 kts | 220° |
| 2026-05-03 21:03 | 25.64472 | -80.43432 | 6 ft | 9 kts | 146° |
| 2026-05-03 21:03 | 25.64432 | -80.43375 | 6 ft | 9 kts | 128° |
| 2026-05-03 21:04 | 25.64400 | -80.43340 | 6 ft | 0 kts | 160° |
| 2026-05-03 21:07 | 25.64384 | -80.43339 | 6 ft | 7 kts | 183° |
| 2026-05-03 21:07 | 25.64324 | -80.43294 | 6 ft | 8 kts | 90° |
| 2026-05-03 21:08 | 25.64325 | -80.43243 | 6 ft | 23 kts | 87° |
| 2026-05-03 21:08 | 25.64337 | -80.42864 | 36 ft | 65 kts | 81° |
| 2026-05-03 21:08 | 25.64350 | -80.42339 | 216 ft | 70 kts | 79° |
| 2026-05-03 21:08 | 25.64413 | -80.41766 | 379 ft | 76 kts | 84° |
| 2026-05-03 21:09 | 25.64440 | -80.41187 | 579 ft | 75 kts | 81° |
| 2026-05-03 21:09 | 25.64485 | -80.40610 | 796 ft | 72 kts | 83° |
| 2026-05-03 21:09 | 25.64335 | -80.40063 | 954 ft | 77 kts | 121° |
| 2026-05-03 21:09 | 25.63861 | -80.39709 | 1043 ft | 87 kts | 160° |
| 2026-05-03 21:10 | 25.63269 | -80.39837 | 1094 ft | 99 kts | 211° |
| 2026-05-03 21:10 | 25.62905 | -80.40493 | 1078 ft | 105 kts | 263° |
| 2026-05-03 21:10 | 25.62839 | -80.41328 | 967 ft | 110 kts | 271° |
| 2026-05-03 21:10 | 25.62844 | -80.42139 | 934 ft | 101 kts | 273° |
| 2026-05-03 21:11 | 25.62706 | -80.42846 | 1004 ft | 93 kts | 237° |
| 2026-05-03 21:11 | 25.62252 | -80.43424 | 979 ft | 100 kts | 225° |
| 2026-05-03 21:11 | 25.61737 | -80.43960 | 998 ft | 102 kts | 221° |
| 2026-05-03 21:11 | 25.61207 | -80.44524 | 1003 ft | 104 kts | 224° |
| 2026-05-03 21:12 | 25.60675 | -80.45121 | 954 ft | 109 kts | 226° |
| 2026-05-03 21:12 | 25.60214 | -80.45671 | 1168 ft | 88 kts | 226° |
| 2026-05-03 21:12 | 25.59780 | -80.46160 | 1273 ft | 90 kts | 222° |
| 2026-05-03 21:12 | 25.59285 | -80.46651 | 1350 ft | 93 kts | 219° |
| 2026-05-03 21:13 | 25.58807 | -80.47079 | 1562 ft | 87 kts | 214° |
| 2026-05-03 21:13 | 25.58310 | -80.47463 | 1759 ft | 85 kts | 211° |
| 2026-05-03 21:13 | 25.57811 | -80.47787 | 1965 ft | 83 kts | 205° |
| 2026-05-03 21:13 | 25.57286 | -80.48048 | 2155 ft | 82 kts | 200° |
| 2026-05-03 21:14 | 25.56764 | -80.48319 | 2338 ft | 82 kts | 204° |
| 2026-05-03 21:14 | 25.56255 | -80.48599 | 2500 ft | 83 kts | 206° |
| 2026-05-03 21:14 | 25.55746 | -80.48886 | 2692 ft | 82 kts | 206° |
| 2026-05-03 21:14 | 25.55238 | -80.49159 | 2888 ft | 79 kts | 210° |
| 2026-05-03 21:15 | 25.54771 | -80.49453 | 3067 ft | 77 kts | 209° |
| 2026-05-03 21:15 | 25.54288 | -80.49715 | 3235 ft | 78 kts | 206° |
| 2026-05-03 21:15 | 25.53778 | -80.49940 | 3388 ft | 80 kts | 201° |
| 2026-05-03 21:15 | 25.53238 | -80.50135 | 3509 ft | 85 kts | 201° |
| 2026-05-03 21:16 | 25.52630 | -80.50343 | 3591 ft | 93 kts | 200° |
| 2026-05-03 21:16 | 25.51995 | -80.50547 | 3628 ft | 103 kts | 199° |
| 2026-05-03 21:16 | 25.51293 | -80.50798 | 3380 ft | 110 kts | 204° |
| 2026-05-03 21:16 | 25.50652 | -80.51105 | 3400 ft | 87 kts | 211° |
| 2026-05-03 21:17 | 25.50136 | -80.51389 | 3409 ft | 82 kts | 208° |
| 2026-05-03 21:17 | 25.49783 | -80.51562 | 3441 ft | 83 kts | 206° |
| 2026-05-03 21:17 | 25.49081 | -80.51901 | 3549 ft | 83 kts | 208° |
| 2026-05-03 21:17 | 25.48526 | -80.52217 | 3573 ft | 86 kts | 211° |
| 2026-05-03 21:18 | 25.47961 | -80.52477 | 3489 ft | 100 kts | 184° |
| 2026-05-03 21:18 | 25.47443 | -80.52013 | 3515 ft | 100 kts | 112° |
| 2026-05-03 21:18 | 25.47197 | -80.51299 | 3540 ft | 98 kts | 112° |
| 2026-05-03 21:18 | 25.46982 | -80.50589 | 3556 ft | 97 kts | 108° |
| 2026-05-03 21:19 | 25.46792 | -80.49877 | 3583 ft | 95 kts | 105° |
| 2026-05-03 21:19 | 25.46655 | -80.49152 | 3570 ft | 99 kts | 99° |
| 2026-05-03 21:19 | 25.46569 | -80.48405 | 3610 ft | 95 kts | 93° |
| 2026-05-03 21:19 | 25.46526 | -80.47661 | 3602 ft | 98 kts | 93° |
| 2026-05-03 21:20 | 25.46480 | -80.46881 | 3535 ft | 107 kts | 93° |
| 2026-05-03 21:20 | 25.46432 | -80.46042 | 3502 ft | 110 kts | 93° |
| 2026-05-03 21:20 | 25.46388 | -80.45190 | 3496 ft | 110 kts | 93° |
| 2026-05-03 21:20 | 25.46199 | -80.44385 | 3493 ft | 109 kts | 128° |
| 2026-05-03 21:21 | 25.45697 | -80.43745 | 3496 ft | 110 kts | 134° |
| 2026-05-03 21:21 | 25.45177 | -80.43110 | 3496 ft | 111 kts | 134° |
| 2026-05-03 21:21 | 25.44655 | -80.42477 | 3495 ft | 112 kts | 134° |
| 2026-05-03 21:21 | 25.44127 | -80.41838 | 3494 ft | 112 kts | 134° |
| 2026-05-03 21:22 | 25.43597 | -80.41200 | 3493 ft | 112 kts | 134° |
| 2026-05-03 21:22 | 25.43070 | -80.40563 | 3492 ft | 112 kts | 134° |
| 2026-05-03 21:22 | 25.42538 | -80.39922 | 3491 ft | 112 kts | 135° |
| 2026-05-03 21:22 | 25.42004 | -80.39282 | 3492 ft | 112 kts | 134° |
| 2026-05-03 21:23 | 25.41477 | -80.38650 | 3492 ft | 112 kts | 134° |
| 2026-05-03 21:23 | 25.40950 | -80.38011 | 3491 ft | 113 kts | 133° |
| 2026-05-03 21:23 | 25.40414 | -80.37366 | 3488 ft | 113 kts | 134° |
| 2026-05-03 21:23 | 25.39873 | -80.36716 | 3462 ft | 117 kts | 134° |
| 2026-05-03 21:24 | 25.39344 | -80.36083 | 3325 ft | 107 kts | 134° |
| 2026-05-03 21:24 | 25.38924 | -80.35445 | 3166 ft | 102 kts | 112° |
| 2026-05-03 21:24 | 25.38619 | -80.34747 | 3017 ft | 99 kts | 117° |
| 2026-05-03 21:24 | 25.38317 | -80.34074 | 2872 ft | 96 kts | 117° |
| 2026-05-03 21:25 | 25.38027 | -80.33426 | 2727 ft | 93 kts | 118° |
| 2026-05-03 21:25 | 25.37737 | -80.32783 | 2586 ft | 95 kts | 116° |
| 2026-05-03 21:25 | 25.37428 | -80.32121 | 2444 ft | 97 kts | 117° |
| 2026-05-03 21:25 | 25.37113 | -80.31464 | 2302 ft | 97 kts | 117° |
| 2026-05-03 21:26 | 25.36793 | -80.30804 | 2160 ft | 97 kts | 118° |
| 2026-05-03 21:26 | 25.36468 | -80.30142 | 2015 ft | 97 kts | 117° |
| 2026-05-03 21:26 | 25.36144 | -80.29494 | 1873 ft | 97 kts | 117° |
| 2026-05-03 21:26 | 25.35834 | -80.28840 | 1700 ft | 94 kts | 116° |
| 2026-05-03 21:27 | 25.35477 | -80.28243 | 1468 ft | 96 kts | 126° |
| 2026-05-03 21:27 | 25.35031 | -80.27712 | 1205 ft | 93 kts | 134° |
| 2026-05-03 21:27 | 25.34560 | -80.27284 | 1002 ft | 84 kts | 142° |
| 2026-05-03 21:27 | 25.34134 | -80.26884 | 840 ft | 75 kts | 122° |
| 2026-05-03 21:28 | 25.34045 | -80.26378 | 788 ft | 63 kts | 70° |
| 2026-05-03 21:28 | 25.34447 | -80.26279 | 727 ft | 80 kts | 324° |
| 2026-05-03 21:28 | 25.34389 | -80.26739 | 681 ft | 74 kts | 186° |
| 2026-05-03 21:28 | 25.33870 | -80.26668 | 479 ft | 71 kts | 171° |
| 2026-05-03 21:29 | 25.33408 | -80.26777 | 315 ft | 67 kts | 200° |
| 2026-05-03 21:29 | 25.33010 | -80.27076 | 119 ft | 69 kts | 214° |
| 2026-05-03 21:29 | 25.32646 | -80.27387 | 8 ft | 57 kts | 216° |
| 2026-05-03 21:29 | 25.32390 | -80.27610 | 6 ft | 38 kts | 219° |
| 2026-05-03 21:30 | 25.32230 | -80.27747 | 6 ft | 20 kts | 214° |
| 2026-05-03 21:30 | 25.32174 | -80.27766 | 6 ft | 1 kts | 193° |
| 2026-05-03 21:30 | 25.32173 | -80.27766 | 6 ft | 0 kts | 194° |
| 2026-05-03 21:31 | 25.32165 | -80.27751 | 6 ft | 5 kts | 36° |
| 2026-05-03 21:31 | 25.32198 | -80.27755 | 6 ft | 4 kts | 21° |
| 2026-05-03 21:31 | 25.32228 | -80.27721 | 6 ft | 8 kts | 65° |
| 2026-05-03 21:31 | 25.32253 | -80.27697 | 6 ft | 1 kts | 16° |
| 2026-05-03 21:32 | 25.32254 | -80.27696 | 6 ft | 0 kts | 17° |